createdAt,value
2023-09-18T00:00:50.564Z,17.26
2023-09-18T00:04:24.166Z,17.17
2023-09-18T00:07:53.271Z,17.08
2023-09-18T00:11:19.718Z,17.00
2023-09-18T00:14:48.678Z,16.91
2023-09-18T00:18:10.325Z,16.81
2023-09-18T00:21:29.297Z,16.69
2023-09-18T00:24:41.191Z,16.57
2023-09-18T00:28:09.809Z,16.46
2023-09-18T00:31:38.963Z,16.34
2023-09-18T00:35:08.094Z,16.21
2023-09-18T00:38:37.033Z,16.10
2023-09-18T00:41:58.744Z,15.99
2023-09-18T00:45:21.157Z,15.91
2023-09-18T00:48:50.603Z,15.81
2023-09-18T00:52:20.070Z,15.72
2023-09-18T00:55:40.799Z,15.63
2023-09-18T00:59:08.543Z,15.55
2023-09-18T01:02:36.609Z,15.43
2023-09-18T01:06:05.794Z,15.32
2023-09-18T01:09:34.812Z,15.23
2023-09-18T01:13:06.596Z,15.14
2023-09-18T01:16:38.996Z,15.06
2023-09-18T01:20:23.237Z,15.01
2023-09-18T01:23:52.320Z,14.93
2023-09-18T01:27:21.312Z,14.86
2023-09-18T01:30:33.727Z,14.86
2023-09-18T01:34:02.742Z,14.81
2023-09-18T01:37:31.808Z,14.77
2023-09-18T01:41:00.902Z,14.61
2023-09-18T01:44:22.576Z,14.57
2023-09-18T01:47:51.733Z,14.58
2023-09-18T01:51:20.613Z,14.56
2023-09-18T01:54:49.668Z,14.48
2023-09-18T01:58:09.641Z,14.41
2023-09-18T02:01:32.804Z,14.30
2023-09-18T02:05:10.005Z,14.23
2023-09-18T02:08:39.556Z,14.17
2023-09-18T02:11:58.567Z,14.09
2023-09-18T02:15:07.692Z,14.01
2023-09-18T02:18:29.424Z,13.91
2023-09-18T02:21:51.381Z,13.81
2023-09-18T02:25:20.316Z,13.69
2023-09-18T02:28:48.926Z,13.52
2023-09-18T02:32:18.421Z,13.34
2023-09-18T02:35:41.388Z,13.25
2023-09-18T02:39:00.640Z,13.18
2023-09-18T02:42:29.697Z,13.07
2023-09-18T02:45:59.026Z,12.88
2023-09-18T02:49:20.813Z,12.77
2023-09-18T02:52:49.740Z,12.67
2023-09-18T02:56:19.174Z,12.55
2023-09-18T02:59:48.258Z,12.45
2023-09-18T03:03:17.386Z,12.36
2023-09-18T03:06:46.359Z,12.27
2023-09-18T03:10:15.329Z,12.14
2023-09-18T03:13:44.249Z,12.05
2023-09-18T03:17:12.168Z,11.97
2023-09-18T03:20:32.683Z,11.85
2023-09-18T03:24:01.317Z,11.79
2023-09-18T03:27:19.118Z,11.71
2023-09-18T03:30:31.048Z,11.64
2023-09-18T03:34:00.062Z,11.55
2023-09-18T03:37:09.047Z,11.48
2023-09-18T03:40:37.990Z,11.45
2023-09-18T03:44:06.934Z,11.40
2023-09-18T03:47:36.092Z,11.33
2023-09-18T03:50:57.808Z,11.27
2023-09-18T03:54:26.791Z,11.21
2023-09-18T03:57:55.759Z,11.20
2023-09-18T04:01:17.904Z,11.17
2023-09-18T04:04:39.821Z,11.16
2023-09-18T04:07:49.726Z,11.16
2023-09-18T04:11:18.696Z,11.17
2023-09-18T04:14:47.599Z,11.18
2023-09-18T04:18:16.591Z,11.21
2023-09-18T04:21:15.644Z,11.29
2023-09-18T04:24:31.110Z,11.99
2023-09-18T04:28:01.533Z,13.32
2023-09-18T04:31:29.332Z,14.59
2023-09-18T04:34:58.333Z,15.73
2023-09-18T04:38:27.374Z,16.77
2023-09-18T04:41:56.419Z,17.81
2023-09-18T04:44:55.471Z,18.81
2023-09-18T04:48:24.416Z,19.21
2023-09-18T04:51:46.118Z,19.99
2023-09-18T04:55:15.050Z,20.58
2023-09-18T04:58:33.897Z,21.35
2023-09-18T05:02:02.937Z,21.96
2023-09-18T05:05:32.014Z,22.46
2023-09-18T05:08:43.806Z,23.53
2023-09-18T05:11:56.363Z,24.00
2023-09-18T05:15:25.401Z,24.63
2023-09-18T05:18:54.455Z,25.12
2023-09-18T05:22:23.808Z,25.61
2023-09-18T05:25:52.759Z,26.37
2023-09-18T05:29:21.795Z,26.96
2023-09-18T05:32:50.956Z,26.99
2023-09-18T05:36:22.718Z,28.34
2023-09-18T05:39:51.619Z,28.78
2023-09-18T05:43:13.290Z,29.48
2023-09-18T05:46:31.067Z,29.49
2023-09-18T05:50:00.103Z,30.34
2023-09-18T05:53:22.599Z,30.60
2023-09-18T05:56:51.708Z,30.79
2023-09-18T06:00:20.638Z,31.44
2023-09-18T06:03:42.943Z,31.47
2023-09-18T06:07:04.891Z,31.62
2023-09-18T06:10:33.892Z,32.33
2023-09-18T06:14:02.708Z,31.94
2023-09-18T06:17:17.967Z,32.40
2023-09-18T06:20:47.036Z,32.96
2023-09-18T06:24:09.030Z,33.63
2023-09-18T06:27:37.918Z,33.94
2023-09-18T06:31:06.933Z,34.29
2023-09-18T06:34:35.932Z,34.72
2023-09-18T06:38:04.441Z,34.01
2023-09-18T06:41:33.504Z,34.54
2023-09-18T06:45:02.698Z,34.14
2023-09-18T06:48:32.157Z,34.61
2023-09-18T06:52:00.123Z,34.24
2023-09-18T06:55:28.083Z,34.46
2023-09-18T06:58:57.111Z,34.13
2023-09-18T07:02:26.133Z,34.04
2023-09-18T07:05:55.168Z,33.73
2023-09-18T07:09:24.182Z,33.86
2023-09-18T07:12:53.208Z,33.96
2023-09-18T07:16:21.956Z,33.80
2023-09-18T07:19:39.510Z,33.17
2023-09-18T07:23:07.507Z,33.52
2023-09-18T07:26:36.616Z,33.24
2023-09-18T07:29:55.605Z,33.03
2023-09-18T07:33:24.647Z,32.78
2023-09-18T07:36:53.657Z,31.71
2023-09-18T07:40:22.660Z,32.44
2023-09-18T07:43:51.674Z,31.97
2023-09-18T07:47:20.713Z,31.56
2023-09-18T07:50:51.497Z,30.74
2023-09-18T07:54:03.781Z,29.64
2023-09-18T07:57:32.806Z,29.14
2023-09-18T08:01:01.935Z,28.80
2023-09-18T08:04:14.041Z,28.75
2023-09-18T08:07:32.175Z,28.41
2023-09-18T08:11:02.379Z,28.18
2023-09-18T08:14:33.059Z,27.94
2023-09-18T08:18:02.490Z,28.04
2023-09-18T08:21:31.763Z,27.88
2023-09-18T08:24:53.572Z,27.67
2023-09-18T08:28:22.792Z,27.48
2023-09-18T08:31:51.779Z,27.37
2023-09-18T08:35:08.222Z,27.30
2023-09-18T08:38:39.440Z,27.01
2023-09-18T08:42:08.560Z,27.31
2023-09-18T08:45:31.634Z,27.32
2023-09-18T08:48:43.446Z,27.29
2023-09-18T08:52:12.480Z,27.21
2023-09-18T08:55:41.834Z,27.08
2023-09-18T08:59:10.839Z,27.19
2023-09-18T09:02:39.918Z,27.14
2023-09-18T09:06:04.833Z,27.09
2023-09-18T09:09:33.893Z,27.30
2023-09-18T09:13:34.485Z,27.24
2023-09-18T09:17:03.116Z,27.34
2023-09-18T09:20:32.102Z,27.30
2023-09-18T09:23:54.377Z,27.24
2023-09-18T09:27:23.656Z,27.49
2023-09-18T09:30:52.314Z,27.51
2023-09-18T09:34:24.831Z,27.75
2023-09-18T09:37:53.804Z,27.79
2023-09-18T09:41:25.423Z,27.77
2023-09-18T09:44:54.377Z,27.63
2023-09-18T09:48:23.330Z,27.60
2023-09-18T09:51:52.386Z,27.53
2023-09-18T09:55:14.156Z,27.87
2023-09-18T09:58:43.107Z,27.81
2023-09-18T10:02:04.212Z,28.09
2023-09-18T10:05:30.211Z,27.83
2023-09-18T10:09:00.180Z,27.43
2023-09-18T10:12:29.030Z,27.63
2023-09-18T10:15:57.921Z,27.81
2023-09-18T10:19:26.816Z,27.97
2023-09-18T10:23:13.920Z,27.82
2023-09-18T10:26:32.911Z,27.34
2023-09-18T10:29:55.728Z,27.76
2023-09-18T10:33:17.702Z,27.66
2023-09-18T10:36:47.134Z,27.69
2023-09-18T10:40:08.852Z,27.78
2023-09-18T10:43:37.724Z,27.59
2023-09-18T10:46:49.491Z,27.49
2023-09-18T10:50:08.269Z,27.60
2023-09-18T10:53:40.302Z,27.64
2023-09-18T10:57:09.316Z,27.57
2023-09-18T11:00:38.301Z,27.16
2023-09-18T11:03:59.838Z,27.32
2023-09-18T11:07:19.203Z,27.42
2023-09-18T11:10:46.591Z,26.99
2023-09-18T11:14:18.626Z,27.10
2023-09-18T11:17:47.578Z,27.04
2023-09-18T11:21:16.479Z,27.03
2023-09-18T11:24:45.487Z,26.96
2023-09-18T11:28:08.278Z,26.93
2023-09-18T11:31:37.212Z,26.62
2023-09-18T11:35:06.235Z,26.58
2023-09-18T11:38:47.284Z,26.56
2023-09-18T11:42:16.112Z,26.40
2023-09-18T11:45:45.196Z,26.42
2023-09-18T11:49:07.053Z,26.43
2023-09-18T11:52:36.061Z,26.32
2023-09-18T11:56:05.047Z,26.31
2023-09-18T11:59:27.605Z,26.24
2023-09-18T12:02:46.672Z,26.31
2023-09-18T12:06:09.088Z,26.22
2023-09-18T12:09:28.116Z,25.86
2023-09-18T12:12:56.991Z,25.85
2023-09-18T12:16:25.964Z,26.02
2023-09-18T12:19:52.905Z,25.97
2023-09-18T12:23:01.764Z,25.95
2023-09-18T12:26:24.415Z,25.92
2023-09-18T12:29:36.306Z,25.86
2023-09-18T12:33:05.323Z,25.77
2023-09-18T12:36:17.543Z,25.71
2023-09-18T12:39:46.378Z,25.63
2023-09-18T12:43:15.270Z,25.63
2023-09-18T12:46:43.049Z,25.59
2023-09-18T12:50:12.016Z,25.58
2023-09-18T12:53:49.973Z,25.53
2023-09-18T12:57:21.736Z,25.57
2023-09-18T13:00:40.793Z,25.66
2023-09-18T13:04:03.111Z,25.71
2023-09-18T13:07:32.194Z,25.73
2023-09-18T13:11:01.162Z,25.70
2023-09-18T13:14:12.554Z,25.65
2023-09-18T13:17:38.591Z,25.66
2023-09-18T13:21:00.219Z,25.65
2023-09-18T13:24:21.996Z,25.65
2023-09-18T13:27:51.128Z,25.62
2023-09-18T13:31:20.013Z,25.57
2023-09-18T13:34:48.857Z,25.60
2023-09-18T13:38:07.613Z,25.58
2023-09-18T13:41:36.419Z,25.53
2023-09-18T13:44:48.010Z,25.48
2023-09-18T13:48:15.678Z,25.42
2023-09-18T13:51:44.666Z,25.43
2023-09-18T13:55:13.637Z,25.38
2023-09-18T13:58:42.525Z,25.27
2023-09-18T14:02:11.522Z,25.31
2023-09-18T14:05:31.590Z,25.22
2023-09-18T14:08:40.976Z,25.27
2023-09-18T14:11:58.839Z,25.20
2023-09-18T14:15:27.806Z,25.18
2023-09-18T14:18:56.747Z,25.17
2023-09-18T14:22:25.589Z,25.15
2023-09-18T14:25:42.983Z,25.11
2023-09-18T14:29:07.497Z,25.07
2023-09-18T14:32:36.501Z,25.03
2023-09-18T14:36:05.393Z,24.99
2023-09-18T14:39:24.129Z,24.92
2023-09-18T14:42:43.151Z,24.86
2023-09-18T14:46:05.834Z,24.84
2023-09-18T14:49:18.948Z,24.83
2023-09-18T14:52:47.861Z,24.77
2023-09-18T14:55:56.647Z,24.69
2023-09-18T14:59:08.307Z,24.64
2023-09-18T15:02:36.361Z,24.61
2023-09-18T15:06:05.530Z,24.55
2023-09-18T15:09:34.470Z,24.51
2023-09-18T15:12:53.561Z,24.46
2023-09-18T15:16:21.355Z,24.40
2023-09-18T15:19:50.081Z,24.36
2023-09-18T15:23:18.408Z,24.30
2023-09-18T15:26:27.239Z,24.24
2023-09-18T15:29:55.836Z,24.17
2023-09-18T15:33:27.945Z,24.07
2023-09-18T15:36:56.944Z,23.92
2023-09-18T15:40:25.975Z,23.82
2023-09-18T15:43:54.924Z,23.71
2023-09-18T15:47:17.442Z,23.60
2023-09-18T15:50:46.404Z,23.45
2023-09-18T15:53:58.681Z,23.30
2023-09-18T15:57:27.744Z,23.12
2023-09-18T16:00:48.979Z,22.95
2023-09-18T16:04:18.068Z,22.76
2023-09-18T16:07:47.178Z,22.49
2023-09-18T16:11:16.305Z,22.23
2023-09-18T16:14:45.398Z,22.03
2023-09-18T16:18:14.459Z,21.86
2023-09-18T16:21:42.772Z,21.66
2023-09-18T16:25:01.579Z,21.41
2023-09-18T16:28:29.514Z,21.15
2023-09-18T16:31:58.535Z,20.94
2023-09-18T16:35:27.487Z,20.73
2023-09-18T16:38:56.484Z,20.54
2023-09-18T16:42:25.458Z,20.33
2023-09-18T16:45:54.076Z,20.15
2023-09-18T16:49:23.008Z,19.90
2023-09-18T16:52:51.803Z,19.73
2023-09-18T16:56:20.753Z,19.60
2023-09-18T16:59:49.701Z,19.46
2023-09-18T17:03:09.098Z,19.28
2023-09-18T17:06:31.395Z,19.13
2023-09-18T17:10:00.438Z,19.01
2023-09-18T17:13:11.977Z,18.87
2023-09-18T17:16:32.805Z,18.70
2023-09-18T17:20:01.891Z,18.49
2023-09-18T17:23:30.829Z,18.31
2023-09-18T17:26:41.163Z,18.14
2023-09-18T17:30:09.812Z,18.02
2023-09-18T17:33:37.882Z,17.93
2023-09-18T17:37:07.051Z,17.84
2023-09-18T17:40:25.649Z,17.77
2023-09-18T17:43:54.684Z,17.59
2023-09-18T17:47:23.550Z,17.35
2023-09-18T17:50:51.337Z,17.19
2023-09-18T17:54:03.409Z,17.09
2023-09-18T17:57:15.310Z,17.02
2023-09-18T18:00:44.283Z,16.96
2023-09-18T18:03:55.422Z,16.93
2023-09-18T18:07:24.763Z,16.86
2023-09-18T18:10:52.310Z,16.79
2023-09-18T18:13:49.948Z,16.72
2023-09-18T18:17:18.894Z,16.65
2023-09-18T18:20:47.768Z,16.53
2023-09-18T18:24:05.954Z,16.42
2023-09-18T18:27:34.808Z,16.31
2023-09-18T18:30:43.636Z,16.23
2023-09-18T18:33:56.462Z,16.12
2023-09-18T18:37:24.084Z,16.02
2023-09-18T18:40:44.643Z,15.92
2023-09-18T18:44:14.065Z,15.81
2023-09-18T18:47:19.850Z,15.69
2023-09-18T18:50:48.880Z,15.59
2023-09-18T18:54:17.866Z,15.48
2023-09-18T18:57:40.114Z,15.38
2023-09-18T19:01:10.031Z,15.29
2023-09-18T19:04:38.980Z,15.16
2023-09-18T19:07:30.872Z,15.06
2023-09-18T19:10:39.841Z,15.01
2023-09-18T19:14:07.367Z,14.91
2023-09-18T19:17:36.492Z,14.81
2023-09-18T19:20:54.085Z,14.72
2023-09-18T19:24:15.747Z,14.68
2023-09-18T19:27:44.703Z,14.63
2023-09-18T19:30:30.936Z,14.59
2023-09-18T19:33:42.859Z,14.55
2023-09-18T19:37:09.504Z,14.48
2023-09-18T19:40:21.053Z,14.41
2023-09-18T19:43:32.617Z,14.34
2023-09-18T19:47:01.505Z,14.29
2023-09-18T19:50:20.552Z,14.25
2023-09-18T19:53:43.795Z,14.22
2023-09-18T19:57:12.791Z,14.20
2023-09-18T20:00:30.634Z,14.16
2023-09-18T20:03:42.868Z,14.09
2023-09-18T20:07:09.016Z,14.05
2023-09-18T20:10:32.677Z,14.05
2023-09-18T20:13:52.702Z,14.03
2023-09-18T20:17:24.371Z,13.96
2023-09-18T20:20:53.406Z,13.93
2023-09-18T20:24:15.386Z,14.00
2023-09-18T20:27:42.507Z,13.95
2023-09-18T20:31:11.551Z,14.06
2023-09-18T20:34:40.338Z,14.51
2023-09-18T20:41:41.113Z,16.20
2023-09-18T20:45:10.145Z,16.86
2023-09-18T20:48:39.377Z,17.29
2023-09-18T20:51:58.615Z,17.68
2023-09-18T20:55:27.558Z,17.94
2023-09-18T20:58:46.341Z,18.13
2023-09-18T21:02:05.464Z,18.26
2023-09-18T21:05:34.776Z,18.31
2023-09-18T21:09:03.764Z,18.35
2023-09-18T21:12:31.652Z,18.33
2023-09-18T21:16:00.444Z,18.30
2023-09-18T21:19:22.211Z,18.29
2023-09-18T21:22:43.644Z,18.30
2023-09-18T21:26:10.384Z,18.36
2023-09-18T21:29:31.864Z,18.41
2023-09-18T21:32:53.830Z,18.39
2023-09-18T21:36:05.518Z,18.37
2023-09-18T21:39:37.261Z,18.34
2023-09-18T21:42:48.187Z,18.33
2023-09-18T21:46:17.200Z,18.29
2023-09-18T21:49:44.781Z,18.24
2023-09-18T21:53:12.651Z,18.17
2023-09-18T21:56:32.595Z,18.13
2023-09-18T22:00:01.476Z,18.11
2023-09-18T22:03:13.544Z,18.09
2023-09-18T22:06:42.496Z,18.11
2023-09-18T22:10:11.409Z,18.09
2023-09-18T22:13:40.259Z,18.09
2023-09-18T22:17:07.929Z,18.07
2023-09-18T22:20:19.351Z,18.05
2023-09-18T22:24:07.768Z,18.02
2023-09-18T22:27:36.666Z,18.00
2023-09-18T22:31:05.596Z,17.94
2023-09-18T22:34:25.360Z,17.91
2023-09-18T22:37:54.236Z,17.90
2023-09-18T22:41:02.892Z,17.86
2023-09-18T22:44:30.434Z,17.84
2023-09-18T22:47:57.789Z,17.79
2023-09-18T22:51:25.367Z,17.74
2023-09-18T22:54:33.878Z,17.68
2023-09-18T22:58:02.818Z,17.64
2023-09-18T23:01:31.866Z,17.59
2023-09-18T23:05:00.914Z,17.53
2023-09-18T23:08:32.621Z,17.49
2023-09-18T23:12:01.658Z,17.42
2023-09-18T23:15:30.552Z,17.38
2023-09-18T23:18:32.901Z,17.35
2023-09-18T23:22:00.573Z,17.37
2023-09-18T23:25:29.654Z,17.35
2023-09-18T23:28:48.551Z,17.35
2023-09-18T23:32:09.353Z,17.34
2023-09-18T23:35:34.460Z,17.31
2023-09-18T23:39:03.867Z,17.31
2023-09-18T23:42:25.383Z,17.34
2023-09-18T23:45:54.340Z,17.32
2023-09-18T23:49:23.204Z,17.30
2023-09-18T23:52:52.328Z,17.29
2023-09-18T23:56:14.826Z,17.28
2023-09-18T23:59:43.772Z,17.22
